Palmdale, Minnesota
Current Conditions -  °F | °C
As of 6:15 AM on Friday 24 Oct 2014 (Local Time) from KOEO Reporting Station
Haze Haze  
Wind Chill: 43°   Ceiling: 400
Heat Index: 47°   Visibility: 5mi
Dew Point: 47°   Wind: 7mph
Humidity: 100%   Direction: 130°SE
Pressure: 29.95"   Gusts: NA
Location:  45.4629°N, 92.7113°W
Report Text: KOEO 241115Z AUTO 13006KT 5SM BR BKN004 08/08 A2995 RMK AO2 T00820082
Loading
Personal Weather Stations






























Interactive Weather Map
Tropical Storm Tracking
New forecast layout! Learn more

10-Day Weather Forecast

Advertisements
Track Severe Weather on mobile